Time;durP1;ratioP1;P1;durP2;ratioP2;P2;SDS_P1;SDS_P2;PMS_P1;PMS_P2;Temp;Humidity;BMP_temperature;BMP_pressure;BME280_temperature;BME280_humidity;BME280_pressure;Samples;Min_cycle;Max_cycle;Signal;HPM_P1;HPM_P2
2023/03/25 00:00:56;;;;;;;2.78;2.25;;;23.90;47.30;;;;;;6152990;28;80725;-62
2023/03/25 00:03:57;;;;;;;3.17;2.60;;;23.90;47.30;;;;;;6154783;28;81981;-62
2023/03/25 00:06:57;;;;;;;3.15;2.50;;;23.90;47.30;;;;;;6153462;28;81198;-62
2023/03/25 00:09:58;;;;;;;2.90;2.60;;;23.90;47.40;;;;;;6149250;28;84200;-62
2023/03/25 00:13:03;;;;;;;3.78;2.65;;;23.90;47.50;;;;;;6153436;28;80844;-62
2023/03/25 00:16:05;;;;;;;3.10;2.65;;;23.90;47.40;;;;;;6153337;28;80459;-61
2023/03/25 00:19:08;;;;;;;4.30;2.58;;;23.90;47.60;;;;;;6153907;28;80595;-61
2023/03/25 00:22:08;;;;;;;2.90;2.35;;;23.90;47.50;;;;;;6152730;28;85009;-62
2023/03/25 00:25:09;;;;;;;4.03;3.08;;;23.80;47.70;;;;;;6153935;28;80301;-66
2023/03/25 00:28:09;;;;;;;3.85;2.83;;;23.90;47.70;;;;;;6152440;28;80767;-61
2023/03/25 00:31:10;;;;;;;3.33;2.50;;;23.90;47.70;;;;;;6153685;28;80712;-68
2023/03/25 00:34:13;;;;;;;4.30;2.47;;;23.90;47.80;;;;;;6152492;28;80440;-66
2023/03/25 00:37:17;;;;;;;3.42;2.28;;;23.90;47.80;;;;;;6153646;28;83564;-63
2023/03/25 00:40:17;;;;;;;2.70;2.45;;;23.90;47.70;;;;;;6155097;28;80980;-66
2023/03/25 00:43:18;;;;;;;2.40;2.00;;;23.90;47.70;;;;;;6155020;28;81972;-65
2023/03/25 00:46:19;;;;;;;3.47;2.60;;;23.90;47.70;;;;;;6144547;28;80988;-66
2023/03/25 00:49:23;;;;;;;3.47;2.70;;;23.90;47.60;;;;;;6154670;28;80348;-64
2023/03/25 00:52:24;;;;;;;3.53;2.53;;;23.90;47.50;;;;;;6140082;28;82148;-65
2023/03/25 00:55:24;;;;;;;3.40;2.35;;;23.90;47.50;;;;;;6152794;28;80042;-65
2023/03/25 00:58:25;;;;;;;2.80;2.38;;;23.80;47.50;;;;;;6153752;28;83451;-64
2023/03/25 01:01:26;;;;;;;3.88;2.60;;;23.80;47.60;;;;;;6152593;28;82317;-64
2023/03/25 01:04:26;;;;;;;2.97;2.33;;;23.90;47.40;;;;;;6153063;28;80379;-66
2023/03/25 01:07:30;;;;;;;3.20;2.42;;;23.80;47.40;;;;;;6150867;28;80644;-64
2023/03/25 01:10:31;;;;;;;2.75;2.03;;;23.80;47.40;;;;;;6142315;28;80869;-67
2023/03/25 01:13:32;;;;;;;2.20;2.00;;;23.80;47.30;;;;;;6132376;28;83361;-68
2023/03/25 01:16:32;;;;;;;2.17;1.98;;;23.80;47.30;;;;;;6151729;28;80341;-65
2023/03/25 01:19:33;;;;;;;2.70;2.40;;;23.80;47.40;;;;;;6132914;28;81986;-68
2023/03/25 01:22:33;;;;;;;3.72;2.38;;;23.80;47.40;;;;;;6133308;28;81700;-69
2023/03/25 01:25:34;;;;;;;3.08;2.35;;;23.80;47.30;;;;;;6152074;28;81023;-63
2023/03/25 01:28:34;;;;;;;3.22;2.10;;;23.90;47.30;;;;;;6152941;28;80284;-63
2023/03/25 01:31:37;;;;;;;2.67;2.30;;;23.90;47.20;;;;;;6135476;28;83471;-63
2023/03/25 01:34:38;;;;;;;2.60;2.20;;;23.80;47.20;;;;;;6152537;28;81461;-63
2023/03/25 01:37:39;;;;;;;2.97;2.03;;;23.90;47.10;;;;;;6134819;28;81485;-63
2023/03/25 01:40:39;;;;;;;3.55;2.30;;;23.90;47.30;;;;;;6151884;28;82829;-63
2023/03/25 01:43:40;;;;;;;3.20;2.20;;;23.80;47.20;;;;;;6146009;28;80321;-61
2023/03/25 01:46:45;;;;;;;3.92;2.83;;;23.80;47.10;;;;;;6152505;28;80637;-61
2023/03/25 01:49:46;;;;;;;4.28;2.38;;;23.80;47.20;;;;;;6142063;28;83180;-60
2023/03/25 01:52:47;;;;;;;3.03;2.20;;;23.80;47.30;;;;;;6152438;28;80519;-61
2023/03/25 01:55:48;;;;;;;3.03;2.33;;;23.80;47.40;;;;;;6151509;28;80453;-61
2023/03/25 01:58:49;;;;;;;3.13;2.28;;;23.80;47.30;;;;;;6134239;28;83693;-61
2023/03/25 02:01:50;;;;;;;3.20;2.25;;;23.80;47.40;;;;;;6123382;28;80490;-62
2023/03/25 02:04:57;;;;;;;2.72;2.30;;;23.80;47.40;;;;;;6134285;28;82762;-61
2023/03/25 02:07:58;;;;;;;3.45;2.67;;;23.80;47.30;;;;;;6134472;28;82561;-61
2023/03/25 02:10:58;;;;;;;4.05;2.63;;;23.80;47.40;;;;;;6144362;28;81470;-61
2023/03/25 02:13:59;;;;;;;3.17;2.63;;;23.80;47.50;;;;;;6151186;28;80957;-61
2023/03/25 02:17:00;;;;;;;3.00;2.53;;;23.80;47.40;;;;;;6151223;28;80618;-61
2023/03/25 02:20:08;;;;;;;2.50;2.17;;;23.80;47.30;;;;;;6151073;28;80072;-64
2023/03/25 02:23:08;;;;;;;6.65;2.40;;;23.80;47.50;;;;;;6133734;28;83269;-63
2023/03/25 02:26:09;;;;;;;3.05;2.67;;;23.80;47.50;;;;;;6113593;28;81696;-66
2023/03/25 02:29:09;;;;;;;3.38;2.50;;;23.80;47.50;;;;;;6128532;28;86035;-66
2023/03/25 02:32:10;;;;;;;2.63;2.22;;;23.80;47.50;;;;;;6151166;28;80387;-66
2023/03/25 02:35:11;;;;;;;3.13;2.50;;;23.80;47.50;;;;;;6148894;28;83347;-64
2023/03/25 02:38:12;;;;;;;3.60;2.72;;;23.80;47.50;;;;;;6151399;28;80030;-67
2023/03/25 02:41:16;;;;;;;6.13;2.83;;;23.80;47.50;;;;;;6149811;28;83198;-65
2023/03/25 02:44:17;;;;;;;2.90;2.38;;;23.80;47.50;;;;;;6151468;28;82154;-65
2023/03/25 02:47:18;;;;;;;3.78;2.78;;;23.80;47.50;;;;;;6151449;28;83349;-65
2023/03/25 02:50:18;;;;;;;3.75;2.40;;;23.80;47.50;;;;;;6126503;28;82352;-66
2023/03/25 02:53:19;;;;;;;3.60;2.65;;;23.80;47.50;;;;;;6147890;28;81036;-64
2023/03/25 02:56:21;;;;;;;3.97;3.30;;;23.80;47.50;;;;;;6138420;28;82899;-63
2023/03/25 02:59:24;;;;;;;3.25;2.53;;;23.80;47.50;;;;;;6137636;28;83054;-63
2023/03/25 03:02:25;;;;;;;4.28;2.90;;;23.80;47.40;;;;;;6156376;28;80992;-63
2023/03/25 03:05:25;;;;;;;3.10;2.60;;;23.80;47.40;;;;;;6155480;28;80825;-60
2023/03/25 03:08:26;;;;;;;3.72;2.83;;;23.80;47.60;;;;;;6155812;28;80553;-63
2023/03/25 03:11:26;;;;;;;2.83;2.50;;;23.90;47.70;;;;;;6153305;28;80736;-62
2023/03/25 03:14:27;;;;;;;4.43;2.90;;;23.80;47.60;;;;;;6155657;28;80401;-63
2023/03/25 03:17:28;;;;;;;4.68;2.88;;;23.80;47.50;;;;;;6155513;28;81878;-66
2023/03/25 03:20:31;;;;;;;3.85;2.83;;;23.80;47.50;;;;;;6155722;28;80704;-64
2023/03/25 03:23:32;;;;;;;6.00;2.92;;;23.80;47.60;;;;;;6155805;28;80667;-64
2023/03/25 03:26:33;;;;;;;3.67;2.78;;;23.90;47.80;;;;;;6155112;28;81150;-65
2023/03/25 03:29:33;;;;;;;3.83;3.08;;;23.80;47.70;;;;;;6155238;28;80306;-64
2023/03/25 03:32:34;;;;;;;4.25;2.40;;;23.80;47.70;;;;;;6155138;28;81655;-67
2023/03/25 03:35:37;;;;;;;3.88;2.97;;;23.90;47.80;;;;;;6154587;28;81537;-68
2023/03/25 03:38:37;;;;;;;4.18;2.97;;;23.80;47.80;;;;;;6154468;28;82140;-66
2023/03/25 03:41:38;;;;;;;3.65;2.90;;;23.80;47.90;;;;;;6155519;28;82731;-64
2023/03/25 03:44:39;;;;;;;7.32;2.88;;;23.80;47.70;;;;;;6155164;28;80336;-64
2023/03/25 03:47:40;;;;;;;3.67;2.70;;;23.80;47.90;;;;;;6154241;28;80219;-67
2023/03/25 03:50:40;;;;;;;3.05;2.47;;;23.80;47.90;;;;;;6155756;28;80611;-66
2023/03/25 03:53:42;;;;;;;2.90;2.55;;;23.80;48.00;;;;;;6154739;28;79931;-66
2023/03/25 03:56:45;;;;;;;5.88;2.92;;;23.80;48.10;;;;;;6155182;28;84314;-66
2023/03/25 03:59:46;;;;;;;3.78;2.47;;;23.80;48.00;;;;;;6152748;28;80753;-66
2023/03/25 04:02:47;;;;;;;3.47;2.60;;;23.80;48.10;;;;;;6155403;28;83791;-65
2023/03/25 04:05:47;;;;;;;2.90;2.40;;;23.80;48.20;;;;;;6154602;28;80312;-67
2023/03/25 04:08:52;;;;;;;3.75;2.67;;;23.80;48.30;;;;;;6154099;28;80936;-72
2023/03/25 04:11:52;;;;;;;3.65;2.65;;;23.80;48.20;;;;;;6136667;28;83105;-73
2023/03/25 04:14:53;;;;;;;4.93;2.72;;;23.80;48.50;;;;;;6155864;28;81785;-73
2023/03/25 04:17:53;;;;;;;3.10;2.53;;;23.90;49.00;;;;;;6154859;28;80506;-72
2023/03/25 04:20:55;;;;;;;7.50;2.88;;;23.80;49.00;;;;;;6154809;28;82795;-69
2023/03/25 04:24:00;;;;;;;3.75;2.72;;;23.80;49.10;;;;;;6155182;28;80718;-71
2023/03/25 04:27:02;;;;;;;3.65;2.42;;;23.80;49.00;;;;;;6154872;28;80716;-70
2023/03/25 04:30:03;;;;;;;3.05;2.40;;;23.80;48.90;;;;;;6154859;28;80387;-71
2023/03/25 04:33:03;;;;;;;5.70;2.50;;;23.80;48.60;;;;;;6155882;28;82533;-80
2023/03/25 04:36:05;;;;;;;3.25;2.55;;;23.80;48.60;;;;;;6143828;28;83738;-79
2023/03/25 04:39:06;;;;;;;3.35;2.33;;;23.70;49.30;;;;;;6153707;28;80369;-77
2023/03/25 04:42:07;;;;;;;3.70;2.70;;;23.70;48.80;;;;;;6155362;28;80252;-75
2023/03/25 04:45:12;;;;;;;4.88;2.50;;;23.70;48.70;;;;;;6155246;28;81137;-77
2023/03/25 04:48:13;;;;;;;2.77;2.00;;;23.70;48.80;;;;;;6156917;28;83341;-79
2023/03/25 04:51:14;;;;;;;3.67;2.33;;;23.70;48.90;;;;;;6157897;28;81150;-80
2023/03/25 04:54:15;;;;;;;2.00;1.80;;;23.70;49.00;;;;;;6158991;28;81177;-77
2023/03/25 04:57:15;;;;;;;3.47;2.33;;;23.70;49.00;;;;;;6155625;28;81477;-78
2023/03/25 05:00:16;;;;;;;4.35;2.25;;;23.70;49.00;;;;;;6154692;28;81428;-76
2023/03/25 05:03:16;;;;;;;3.22;1.95;;;23.80;49.00;;;;;;6153642;28;80322;-73
2023/03/25 05:06:17;;;;;;;3.30;2.13;;;23.90;48.90;;;;;;6153865;28;81288;-61
2023/03/25 05:09:20;;;;;;;5.78;2.35;;;23.90;48.70;;;;;;6134107;28;82772;-60
2023/03/25 05:12:21;;;;;;;4.00;2.50;;;23.90;48.60;;;;;;6142726;28;80689;-60
2023/03/25 05:15:21;;;;;;;3.28;2.00;;;23.90;48.70;;;;;;6152785;28;80870;-60
2023/03/25 05:18:22;;;;;;;2.70;2.15;;;23.90;48.70;;;;;;6152042;28;80592;-60
2023/03/25 05:21:22;;;;;;;2.95;1.63;;;23.90;48.60;;;;;;6152983;28;81741;-60
2023/03/25 05:24:25;;;;;;;2.45;1.50;;;24.00;48.60;;;;;;6153785;28;81408;-61
2023/03/25 05:27:27;;;;;;;2.55;1.77;;;24.00;48.60;;;;;;6152802;28;80166;-62
2023/03/25 05:30:31;;;;;;;2.53;1.77;;;24.00;48.60;;;;;;6152041;28;81493;-62
2023/03/25 05:33:31;;;;;;;2.40;1.75;;;24.00;48.80;;;;;;6151648;28;81607;-61
2023/03/25 05:36:32;;;;;;;2.55;1.85;;;24.00;48.90;;;;;;6151926;28;80848;-61
2023/03/25 05:39:33;;;;;;;2.22;1.67;;;23.90;49.10;;;;;;6133483;28;80614;-62
2023/03/25 05:42:33;;;;;;;3.75;1.50;;;23.80;49.20;;;;;;6150544;28;83571;-63
2023/03/25 05:45:34;;;;;;;2.85;1.85;;;23.80;49.40;;;;;;6127629;28;83624;-63
2023/03/25 05:48:35;;;;;;;5.18;2.03;;;23.80;49.50;;;;;;6136048;28;84022;-61
2023/03/25 05:51:36;;;;;;;3.65;1.80;;;23.80;49.50;;;;;;6136181;28;82712;-63
2023/03/25 05:54:40;;;;;;;1.80;1.40;;;23.80;49.70;;;;;;6146751;28;81883;-60
2023/03/25 05:57:41;;;;;;;1.75;1.60;;;23.80;49.90;;;;;;6150239;28;80551;-63
2023/03/25 06:00:42;;;;;;;3.13;1.63;;;23.90;49.80;;;;;;6145154;28;81561;-65
2023/03/25 06:03:43;;;;;;;4.72;1.27;;;23.90;49.80;;;;;;6150477;28;81473;-63
2023/03/25 06:06:43;;;;;;;2.95;1.63;;;23.90;49.80;;;;;;6149286;28;80659;-64
2023/03/25 06:09:44;;;;;;;2.97;1.70;;;23.90;49.70;;;;;;6146194;28;80801;-64
2023/03/25 06:12:45;;;;;;;2.15;1.60;;;23.90;49.80;;;;;;6148928;28;82920;-63
2023/03/25 06:15:46;;;;;;;4.15;2.00;;;24.00;49.80;;;;;;6142627;28;81075;-68
2023/03/25 06:18:49;;;;;;;3.22;1.55;;;24.00;49.50;;;;;;6146317;28;81019;-67
2023/03/25 06:21:50;;;;;;;2.33;1.65;;;24.00;49.30;;;;;;6147327;28;82414;-66
2023/03/25 06:24:51;;;;;;;2.35;1.67;;;24.00;49.40;;;;;;6116663;28;84284;-66
2023/03/25 06:27:51;;;;;;;2.72;1.70;;;24.00;49.30;;;;;;6125227;28;86040;-66
2023/03/25 06:30:52;;;;;;;2.33;1.58;;;24.00;49.60;;;;;;6114450;28;83636;-68
2023/03/25 06:33:53;;;;;;;2.80;1.77;;;24.00;50.20;;;;;;6130120;28;87147;-69
2023/03/25 06:36:53;;;;;;;4.95;1.77;;;24.00;50.10;;;;;;6149992;28;80440;-58
2023/03/25 06:39:55;;;;;;;3.95;1.50;;;24.00;49.90;;;;;;6133574;28;86102;-58
2023/03/25 06:42:56;;;;;;;6.03;2.20;;;24.00;49.80;;;;;;6131513;28;83015;-57
2023/03/25 06:46:12;;;;;;;3.43;1.97;;;24.00;49.80;;;;;;6107590;28;84735;-62
2023/03/25 06:49:32;;;;;;;5.15;1.70;;;24.00;49.60;;;;;;6121104;28;80563;-64
2023/03/25 06:52:33;;;;;;;3.05;1.83;;;24.10;49.50;;;;;;6126053;28;83245;-60
2023/03/25 06:55:34;;;;;;;6.22;2.13;;;24.00;49.70;;;;;;6147809;28;80942;-59
2023/03/25 06:58:34;;;;;;;3.65;1.90;;;24.00;49.80;;;;;;6150393;28;80535;-60
2023/03/25 07:01:35;;;;;;;4.30;2.00;;;24.00;50.00;;;;;;6151560;28;80329;-62
2023/03/25 07:04:35;;;;;;;2.75;1.70;;;24.00;50.30;;;;;;6148678;28;80476;-59
2023/03/25 07:07:36;;;;;;;25.67;2.47;;;24.10;50.20;;;;;;6148509;28;80452;-62
2023/03/25 07:10:37;;;;;;;6.47;2.15;;;24.10;50.00;;;;;;6146791;28;80853;-61
2023/03/25 07:13:37;;;;;;;3.17;2.10;;;24.10;49.90;;;;;;6149152;28;80699;-60
2023/03/25 07:16:38;;;;;;;2.53;1.75;;;24.10;49.90;;;;;;6146730;28;82506;-59
2023/03/25 07:19:38;;;;;;;3.63;2.05;;;24.10;49.90;;;;;;6147249;28;85834;-61
2023/03/25 07:22:39;;;;;;;5.38;2.00;;;24.20;49.80;;;;;;6128267;28;80318;-67
2023/03/25 07:25:40;;;;;;;4.68;2.13;;;24.10;49.80;;;;;;6113112;28;86588;-61
2023/03/25 07:28:40;;;;;;;9.30;2.10;;;24.20;49.80;;;;;;6146174;28;86335;-60
2023/03/25 07:31:41;;;;;;;3.55;2.25;;;24.20;49.70;;;;;;6133948;28;86298;-62
2023/03/25 07:34:41;;;;;;;6.32;2.20;;;24.20;49.60;;;;;;6132302;28;80697;-61
2023/03/25 07:37:42;;;;;;;4.38;2.17;;;24.30;49.70;;;;;;6144532;28;81362;-62
2023/03/25 07:40:42;;;;;;;4.20;1.80;;;24.30;49.70;;;;;;6144458;28;81871;-60
2023/03/25 07:43:44;;;;;;;6.93;2.53;;;24.30;49.60;;;;;;6147912;28;81981;-62
2023/03/25 07:46:59;;;;;;;5.22;2.00;;;24.30;49.70;;;;;;6122802;28;86101;-60
2023/03/25 07:50:00;;;;;;;11.45;2.00;;;24.30;49.40;;;;;;6144720;28;83282;-64
2023/03/25 07:53:00;;;;;;;10.45;2.13;;;24.30;49.40;;;;;;6151355;28;84505;-68
2023/03/25 07:56:01;;;;;;;9.07;2.00;;;24.30;49.60;;;;;;6149221;28;82079;-69
2023/03/25 07:59:01;;;;;;;3.63;2.08;;;24.30;49.60;;;;;;6148050;28;82853;-64
2023/03/25 08:02:02;;;;;;;5.22;3.00;;;24.30;49.60;;;;;;6146912;28;80872;-71
2023/03/25 08:05:02;;;;;;;8.00;2.13;;;24.30;49.60;;;;;;6150391;28;80161;-69
2023/03/25 08:08:03;;;;;;;7.75;2.65;;;24.30;49.30;;;;;;6135444;28;82234;-68
2023/03/25 08:11:03;;;;;;;6.13;2.45;;;24.30;49.50;;;;;;6144016;28;83570;-64
2023/03/25 08:14:04;;;;;;;7.80;2.65;;;24.30;49.50;;;;;;6151383;28;80324;-66
2023/03/25 08:17:05;;;;;;;4.68;2.47;;;24.30;50.20;;;;;;6119544;28;84640;-64
2023/03/25 08:20:05;;;;;;;3.42;2.30;;;24.30;50.50;;;;;;6141039;28;82042;-64
2023/03/25 08:23:09;;;;;;;6.80;3.28;;;24.40;50.70;;;;;;6139049;28;80395;-62
2023/03/25 08:26:09;;;;;;;4.45;2.40;;;24.40;50.60;;;;;;6149249;28;81789;-63
2023/03/25 08:29:10;;;;;;;5.53;2.85;;;24.40;51.00;;;;;;6148666;28;86066;-61
2023/03/25 08:32:10;;;;;;;5.53;2.60;;;24.40;51.20;;;;;;6149224;28;81413;-59
2023/03/25 08:35:11;;;;;;;4.70;2.33;;;24.40;50.90;;;;;;6146575;28;81340;-60
2023/03/25 08:38:11;;;;;;;8.88;2.85;;;24.40;50.80;;;;;;6141384;28;86427;-61
2023/03/25 08:41:12;;;;;;;7.90;2.85;;;24.40;50.50;;;;;;6150637;28;84263;-61
2023/03/25 08:44:13;;;;;;;4.88;2.80;;;24.40;50.60;;;;;;6147785;28;80497;-55
2023/03/25 08:47:13;;;;;;;8.85;2.55;;;24.40;50.50;;;;;;6141094;28;85373;-60
2023/03/25 08:50:14;;;;;;;4.85;2.95;;;24.40;50.80;;;;;;6141236;28;82157;-59
2023/03/25 08:53:15;;;;;;;5.78;2.72;;;24.40;50.90;;;;;;6137365;28;81490;-58
2023/03/25 08:56:15;;;;;;;5.40;2.70;;;24.40;50.90;;;;;;6145579;28;83604;-57
2023/03/25 08:59:16;;;;;;;7.85;2.65;;;24.40;50.80;;;;;;6139224;28;83067;-64
2023/03/25 09:02:16;;;;;;;5.63;2.70;;;24.40;50.40;;;;;;6148404;28;83375;-58
2023/03/25 09:05:17;;;;;;;6.72;2.42;;;24.50;49.90;;;;;;6150940;28;80630;-60
2023/03/25 09:08:18;;;;;;;7.70;2.95;;;24.60;49.50;;;;;;6143745;28;83738;-61
2023/03/25 09:11:19;;;;;;;4.57;2.40;;;24.60;49.70;;;;;;6145578;28;81139;-59
2023/03/25 09:14:19;;;;;;;7.43;2.65;;;24.70;49.30;;;;;;6152228;28;80753;-61
2023/03/25 09:17:20;;;;;;;4.28;2.17;;;24.70;48.80;;;;;;6151555;28;81023;-61
2023/03/25 09:20:20;;;;;;;4.93;1.60;;;24.70;48.40;;;;;;6124904;28;81994;-60
2023/03/25 09:23:21;;;;;;;4.68;2.75;;;24.70;47.90;;;;;;6148044;28;81301;-59
2023/03/25 09:26:21;;;;;;;6.28;2.25;;;24.80;47.80;;;;;;6151507;28;81454;-61
2023/03/25 09:29:22;;;;;;;6.90;2.50;;;24.80;47.40;;;;;;6152358;28;80846;-61
2023/03/25 09:32:23;;;;;;;4.68;2.25;;;24.80;46.90;;;;;;6151775;28;81203;-61
2023/03/25 09:35:23;;;;;;;7.18;2.22;;;24.80;47.00;;;;;;6149317;28;81981;-62
2023/03/25 09:38:24;;;;;;;6.93;2.85;;;24.80;46.30;;;;;;6133522;28;86674;-67
2023/03/25 09:41:25;;;;;;;3.80;1.92;;;24.80;46.10;;;;;;6152490;28;80984;-61
2023/03/25 09:44:25;;;;;;;4.95;1.95;;;24.90;46.10;;;;;;6134793;28;83842;-59
2023/03/25 09:47:26;;;;;;;3.53;1.85;;;24.70;44.70;;;;;;6150903;28;80909;-59
2023/03/25 09:50:26;;;;;;;4.40;1.90;;;23.80;42.10;;;;;;6150421;28;82844;-59
2023/03/25 09:53:27;;;;;;;7.18;2.03;;;23.40;41.20;;;;;;6142894;28;80442;-64
2023/03/25 09:56:27;;;;;;;7.40;2.63;;;23.40;41.80;;;;;;6113572;28;83574;-57
2023/03/25 09:59:28;;;;;;;4.40;2.30;;;23.70;41.20;;;;;;6150798;28;81011;-69
2023/03/25 10:02:29;;;;;;;5.57;1.80;;;23.90;42.00;;;;;;6134279;28;81743;-67
2023/03/25 10:05:30;;;;;;;6.00;2.17;;;24.00;42.30;;;;;;6148540;28;80965;-66
2023/03/25 10:08:30;;;;;;;4.30;1.80;;;23.80;41.20;;;;;;6148885;28;81660;-66
2023/03/25 10:11:31;;;;;;;5.07;2.22;;;23.50;40.80;;;;;;6150578;28;80294;-64
2023/03/25 10:14:31;;;;;;;5.45;2.45;;;23.60;41.20;;;;;;6151741;28;80307;-69
2023/03/25 10:17:32;;;;;;;7.50;1.60;;;23.70;40.60;;;;;;6151227;28;81259;-71
2023/03/25 10:20:32;;;;;;;2.75;1.52;;;23.90;40.90;;;;;;6147529;28;83423;-69
2023/03/25 10:23:33;;;;;;;5.93;1.80;;;24.00;40.50;;;;;;6120183;28;87287;-70
2023/03/25 10:26:33;;;;;;;5.72;2.03;;;24.10;41.00;;;;;;6134509;28;80645;-65
2023/03/25 10:29:34;;;;;;;3.65;1.67;;;23.70;40.00;;;;;;6148458;28;82254;-65
2023/03/25 10:32:34;;;;;;;4.10;1.85;;;23.90;39.90;;;;;;6126642;28;85553;-69
2023/03/25 10:35:35;;;;;;;6.20;1.60;;;24.00;39.10;;;;;;6127226;28;80289;-63
2023/03/25 10:38:35;;;;;;;4.90;1.50;;;23.80;39.70;;;;;;6138628;28;82148;-63
2023/03/25 10:41:36;;;;;;;3.47;1.80;;;24.00;39.90;;;;;;6150221;28;82012;-64
2023/03/25 10:44:37;;;;;;;6.82;2.30;;;24.00;39.40;;;;;;6146706;28;86950;-64
2023/03/25 10:47:37;;;;;;;5.32;1.80;;;24.30;39.30;;;;;;6148680;28;80713;-65
2023/03/25 10:50:38;;;;;;;4.75;2.28;;;24.30;39.00;;;;;;6151947;28;85967;-66
2023/03/25 10:53:38;;;;;;;5.60;2.25;;;24.40;39.00;;;;;;6152419;28;81933;-64
2023/03/25 10:56:39;;;;;;;4.60;2.10;;;24.40;39.40;;;;;;6152054;28;80315;-64
2023/03/25 10:59:41;;;;;;;5.68;2.35;;;24.30;38.30;;;;;;6151453;28;80421;-64
2023/03/25 11:02:42;;;;;;;2.38;1.30;;;24.20;39.10;;;;;;6139384;28;80425;-63
2023/03/25 11:05:44;;;;;;;3.38;1.92;;;24.40;38.90;;;;;;6127430;28;81178;-65
2023/03/25 11:08:45;;;;;;;5.75;2.15;;;24.30;37.90;;;;;;6139715;28;80408;-60
2023/03/25 11:11:46;;;;;;;4.28;2.05;;;24.40;38.60;;;;;;6137562;28;80505;-64
2023/03/25 11:14:46;;;;;;;2.60;1.83;;;24.50;38.20;;;;;;6127656;28;81875;-63
2023/03/25 11:17:47;;;;;;;3.95;1.80;;;24.30;37.30;;;;;;6120689;28;80653;-64
2023/03/25 11:20:47;;;;;;;4.75;2.08;;;24.00;36.70;;;;;;6137458;28;80990;-64
2023/03/25 11:23:48;;;;;;;2.90;1.52;;;24.00;36.00;;;;;;6156660;28;81033;-61
2023/03/25 11:26:51;;;;;;;6.07;2.17;;;24.10;37.00;;;;;;6119122;28;85679;-59
2023/03/25 11:29:51;;;;;;;5.18;2.00;;;23.70;37.00;;;;;;6140610;28;80599;-63
2023/03/25 11:32:52;;;;;;;3.67;2.28;;;23.80;37.50;;;;;;6148883;28;80288;-64
2023/03/25 11:35:52;;;;;;;6.30;1.73;;;23.50;36.70;;;;;;6150841;28;80329;-66
2023/03/25 11:38:53;;;;;;;4.35;1.88;;;23.50;37.30;;;;;;6150702;28;81334;-67
2023/03/25 11:41:53;;;;;;;7.22;1.95;;;23.50;38.20;;;;;;6152883;28;81115;-64
2023/03/25 11:44:54;;;;;;;6.15;1.90;;;23.60;37.90;;;;;;6134190;28;81538;-66
2023/03/25 11:47:55;;;;;;;4.20;2.35;;;23.80;38.80;;;;;;6152116;28;81035;-62
2023/03/25 11:50:55;;;;;;;9.52;2.30;;;23.80;39.00;;;;;;6133733;28;81382;-63
2023/03/25 11:53:56;;;;;;;4.38;1.60;;;24.00;39.30;;;;;;6150130;28;81285;-62
2023/03/25 11:56:57;;;;;;;7.15;1.90;;;24.00;39.20;;;;;;6131300;28;83085;-63
2023/03/25 11:59:57;;;;;;;4.00;1.30;;;23.90;38.90;;;;;;6145723;28;81320;-65
2023/03/25 12:02:58;;;;;;;2.22;1.23;;;23.80;36.50;;;;;;6134444;28;82753;-64
2023/03/25 12:05:58;;;;;;;2.47;1.13;;;24.00;37.50;;;;;;6146340;28;81468;-59
2023/03/25 12:08:59;;;;;;;2.75;1.30;;;24.00;36.40;;;;;;6154592;28;80859;-67
2023/03/25 12:12:00;;;;;;;5.35;1.95;;;24.20;36.50;;;;;;6153858;28;82219;-63
2023/03/25 12:15:01;;;;;;;4.15;1.55;;;24.30;37.30;;;;;;6153386;28;80867;-60
2023/03/25 12:18:01;;;;;;;5.88;1.75;;;24.30;36.70;;;;;;6150779;28;81652;-61
2023/03/25 12:21:02;;;;;;;5.63;1.95;;;24.50;37.50;;;;;;6150710;28;80328;-62
2023/03/25 12:24:04;;;;;;;6.07;1.83;;;24.40;37.90;;;;;;6152645;28;80365;-62
2023/03/25 12:27:06;;;;;;;7.63;2.33;;;24.30;38.40;;;;;;6154028;28;80333;-72
2023/03/25 12:30:06;;;;;;;5.13;1.85;;;24.30;38.80;;;;;;6118220;28;81561;-67
2023/03/25 12:33:07;;;;;;;6.68;2.17;;;24.40;39.10;;;;;;6147102;28;80531;-66
2023/03/25 12:36:07;;;;;;;3.80;2.00;;;24.30;39.30;;;;;;6154565;28;81039;-67
2023/03/25 12:39:08;;;;;;;3.10;1.60;;;24.20;39.50;;;;;;6154326;28;81066;-64
2023/03/25 12:42:09;;;;;;;6.53;2.00;;;24.20;40.10;;;;;;6151046;28;83989;-65
2023/03/25 12:45:09;;;;;;;7.28;1.50;;;24.20;40.20;;;;;;6151834;28;81927;-67
2023/03/25 12:48:10;;;;;;;4.88;1.70;;;24.20;39.70;;;;;;6149726;28;81705;-68
2023/03/25 12:51:10;;;;;;;6.28;2.55;;;24.20;39.30;;;;;;6153500;28;81000;-69
2023/03/25 12:54:11;;;;;;;2.25;1.17;;;24.20;39.10;;;;;;6152730;28;80620;-65
2023/03/25 12:57:12;;;;;;;3.85;1.30;;;24.20;39.30;;;;;;6159434;28;81949;-70
2023/03/25 13:00:13;;;;;;;3.65;1.48;;;24.30;39.60;;;;;;6150195;28;80486;-76
2023/03/25 13:03:15;;;;;;;5.53;1.88;;;24.20;39.40;;;;;;6153953;28;80389;-60
2023/03/25 13:06:16;;;;;;;4.43;1.98;;;24.20;39.70;;;;;;6153506;28;82401;-58
2023/03/25 13:09:16;;;;;;;3.65;1.50;;;23.70;40.10;;;;;;6149896;28;81163;-59
2023/03/25 13:12:17;;;;;;;4.45;2.03;;;23.50;40.40;;;;;;6156649;28;85244;-58
2023/03/25 13:15:17;;;;;;;3.78;1.60;;;23.70;40.00;;;;;;6146333;28;80497;-61
2023/03/25 13:18:18;;;;;;;6.30;1.45;;;23.70;39.90;;;;;;6151974;28;81363;-60
2023/03/25 13:21:20;;;;;;;6.65;1.48;;;23.60;38.90;;;;;;6133038;28;81675;-65
2023/03/25 13:24:21;;;;;;;2.75;1.13;;;23.60;39.60;;;;;;6150736;28;80411;-63
2023/03/25 13:27:21;;;;;;;2.17;1.00;;;23.80;41.70;;;;;;6150370;28;84073;-64
2023/03/25 13:30:22;;;;;;;6.85;1.35;;;23.90;41.60;;;;;;6152194;28;80560;-62
2023/03/25 13:33:23;;;;;;;5.25;1.30;;;24.00;41.10;;;;;;6150540;28;81504;-61
2023/03/25 13:36:24;;;;;;;7.13;1.17;;;24.00;40.70;;;;;;6148528;28;85471;-65
2023/03/25 13:39:25;;;;;;;2.83;1.10;;;24.10;40.50;;;;;;6145814;28;80925;-61
2023/03/25 13:42:25;;;;;;;1.15;0.98;;;24.10;40.40;;;;;;6147950;28;81181;-62
2023/03/25 13:45:26;;;;;;;3.03;1.30;;;24.20;39.50;;;;;;6135024;28;80941;-59
2023/03/25 13:48:28;;;;;;;3.20;0.90;;;24.30;39.50;;;;;;6134017;28;82539;-60
2023/03/25 13:51:29;;;;;;;3.15;1.38;;;24.30;39.30;;;;;;6136938;28;81267;-61
2023/03/25 13:54:29;;;;;;;3.13;1.20;;;24.40;39.10;;;;;;6141697;28;80541;-64
2023/03/25 13:57:30;;;;;;;6.82;1.10;;;24.40;38.90;;;;;;6148310;28;82028;-61
2023/03/25 14:00:30;;;;;;;2.83;1.30;;;24.60;38.70;;;;;;6141062;28;81491;-63
2023/03/25 14:03:31;;;;;;;3.17;1.77;;;24.60;38.80;;;;;;6144828;28;80574;-60
2023/03/25 14:06:31;;;;;;;3.20;1.60;;;24.70;38.30;;;;;;6141383;28;80457;-61
2023/03/25 14:09:32;;;;;;;7.88;1.35;;;24.70;38.50;;;;;;6135852;28;83258;-60
2023/03/25 14:12:33;;;;;;;1.40;1.15;;;24.70;38.30;;;;;;6145277;28;81284;-64
2023/03/25 14:15:33;;;;;;;3.20;1.00;;;24.70;38.60;;;;;;6149354;28;81201;-63
2023/03/25 14:18:34;;;;;;;5.10;1.50;;;24.70;38.60;;;;;;6141434;28;84628;-62
2023/03/25 14:21:35;;;;;;;1.77;1.33;;;24.70;38.40;;;;;;6137363;28;83128;-64
2023/03/25 14:24:36;;;;;;;2.97;1.30;;;24.70;38.50;;;;;;6142330;28;80827;-60
2023/03/25 14:27:37;;;;;;;2.38;1.23;;;24.60;38.40;;;;;;6148494;28;80571;-61
2023/03/25 14:30:38;;;;;;;3.15;1.48;;;24.60;38.50;;;;;;6140375;28;80527;-60
2023/03/25 14:33:39;;;;;;;4.30;1.40;;;24.60;38.60;;;;;;6147331;28;80893;-66
2023/03/25 14:36:39;;;;;;;3.20;1.20;;;24.60;38.60;;;;;;6141362;28;80432;-66
2023/03/25 14:39:40;;;;;;;2.45;1.40;;;24.50;38.60;;;;;;6145094;28;83189;-67
2023/03/25 14:42:41;;;;;;;3.90;1.73;;;24.50;38.60;;;;;;6143976;28;82101;-71
2023/03/25 14:45:42;;;;;;;4.43;1.35;;;24.40;38.70;;;;;;6148312;28;80924;-66
2023/03/25 14:48:45;;;;;;;4.80;1.75;;;24.40;39.00;;;;;;6141098;28;81079;-61
2023/03/25 14:51:46;;;;;;;3.08;1.60;;;24.50;39.10;;;;;;6147442;28;83989;-65
2023/03/25 14:54:46;;;;;;;4.15;1.70;;;24.50;39.50;;;;;;6150317;28;82741;-64
2023/03/25 14:57:47;;;;;;;3.38;1.70;;;24.50;39.70;;;;;;6146325;28;80157;-62
2023/03/25 15:00:48;;;;;;;4.57;1.42;;;24.60;39.90;;;;;;6149496;28;81203;-62
2023/03/25 15:03:49;;;;;;;6.85;1.80;;;24.50;40.30;;;;;;6149646;28;81358;-63
2023/03/25 15:06:50;;;;;;;10.25;2.08;;;24.40;40.50;;;;;;6151018;28;81098;-65
2023/03/25 15:09:51;;;;;;;3.13;1.77;;;24.40;40.50;;;;;;6150240;28;81218;-68
2023/03/25 15:12:51;;;;;;;4.45;1.80;;;24.40;40.70;;;;;;6151911;28;80513;-72
2023/03/25 15:15:52;;;;;;;2.80;1.42;;;24.40;41.10;;;;;;6151884;28;80577;-72
2023/03/25 15:18:53;;;;;;;2.97;1.52;;;24.30;40.80;;;;;;6151235;28;81541;-75
2023/03/25 15:21:53;;;;;;;2.05;1.40;;;24.30;40.60;;;;;;6152140;28;80319;-76
2023/03/25 15:24:54;;;;;;;4.45;1.85;;;24.30;40.90;;;;;;6147020;28;80417;-74
2023/03/25 15:27:54;;;;;;;4.03;2.25;;;24.30;40.80;;;;;;6152003;28;80891;-72
2023/03/25 15:30:55;;;;;;;5.43;2.53;;;24.30;40.90;;;;;;6150880;28;80420;-65
2023/03/25 15:33:56;;;;;;;10.07;2.38;;;24.30;41.00;;;;;;6151443;28;80577;-66
2023/03/25 15:36:57;;;;;;;7.50;2.00;;;24.30;41.50;;;;;;6149722;28;80684;-66
2023/03/25 15:39:58;;;;;;;5.70;2.13;;;24.30;41.60;;;;;;6147068;28;80321;-63